Terminal Aerodrome Forecast
Issued by NWS Blacksburg, VA

Home | Current Version | Previous Version | Text Only | Print | Product List | Glossary On
Versions: 1 2 3 4 5 6 7 8 9 10 11 12 13 14 15 16 17 18 19 20 21 22 23 24 25 26 27
864
FTUS41 KRNK 270142 AAB
TAFLYH
TAF AMD
KLYH 270142Z 2702/2724 35007KT 4SM TSRA BR SCT007 BKN040CB
      TEMPO 2702/2703 29010G24KT 1SM +TSRA BR BKN007CB
     FM270330 00000KT P6SM SCT060
     FM271400 36003KT P6SM SCT100
     FM271800 24005KT P6SM VCTS BKN050CB=

USA.gov is the U.S. government's official web portal to all federal, state and local government web resources and services.